Terminal Aerodrome Forecast
Issued by NWS

Home | Current Version | Previous Version | Text Only | Print | Product List | Glossary On
Versions: 1 2 3 4 5 6 7 8 9 10 11 12
000
FTUS45 KRIW 200500
TAFBPI
TAF
KBPI 200527Z 2006/2106 32006KT P6SM VCSH SCT050 OVC080
     FM201000 30006KT P6SM SCT080 BKN120
     FM201500 28007KT P6SM FEW090 SCT150
     FM202200 29011KT P6SM VCTS SCT060CB BKN100
     FM210200 36008KT P6SM VCSH SCT090 BKN130=

USA.gov is the U.S. government's official web portal to all federal, state and local government web resources and services.